CRIS: Rider Performance for JASON WHITING

2020/2021 Performance Overview
PlaceMetroProvnCountryTotal%
1st10160266 %
2nd16250419 %
3rd233005312 %
4th253105613 %
Unplaced134138027261 %
Total2082400448
Last 50 Performances
PlaceMeetDateDistTypeHorseWgtCrdSt Prc
7-14 BUNB 6/03/2021 2000GRAD HCP 60+THE CAT RATCHER 54.5 54.5 $19
5-15 BUNB 6/03/2021 1400LISTED - BUNBURY STAKESCRYPTIC LOVE 55.5 55.5 $26
5-12 BUNB 6/03/2021 1400RTG 66+FALION MASCHINE 56.5 56.5 $7
5-10 BUNB 6/03/2021 1200RTG 69+WEAPONSON 58.5 58.5 $6.50
1-9 BUNB 6/03/2021 12003YO HCP 59+HOT ZED 59 59 $14
6-10 BUNB 6/03/2021 1200WESTSPEED PLATCHIEF ARCHER 58 58 $9
4-11 BUNB 6/03/2021 1200MDNCOTCHIN 58 58 $10
4-11 ALB 4/03/2021 1230RTG 70+MAGIC OPUS 54 54 $10
7-11 ALB 4/03/2021 1600CL2SWIFT GONDO 55.5 55.5 $20
2-10 ALB 4/03/2021 1500RTG 58+SWIFT MIRAGE 55 55 $8.50
9-10 ALB 4/03/2021 1230MDNRICKYS ORA 57 57 $101
1-6 ALB 4/03/2021 10002UP-TRLWATCH ME DANCE  
5-10 PINJ 3/03/2021 1200CL3REACTION 55.5 55.5 $16
6-10 PINJ 3/03/2021 2000CL1LUCS STAR 54 54 $101
10-11 PINJ 3/03/2021 1600MDNFLYING AVA 55 55 $11
7-9 PINJ 3/03/2021 10003YO 0MWLYTILLYS GOT TALENT 55.5 55.5 $31
5-7 PINJ 3/03/2021 10002YO MDNMERIT MAGIC 55 55 $21
4-5 BEL 2/03/2021 10004UP MDN-TRLBREATHE DECEIT  
5-8 BEL 2/03/2021 10003YMDN-TRLPEACE INVENTOR  
8-9 BEL 2/03/2021 4002Y-TRLIM SO LUCKY  
6-6 BEL 2/03/2021 4002Y-TRLPLAY WRITER  
9-10 YORK 1/03/2021 1920RTG 46+ALBYS PRIDE 60 60 $31
2-9 YORK 1/03/2021 1100RTG 46+THE FINEST 60 60 $10
7-8 YORK 1/03/2021 1300RTG 46+MAJESTIC MAN 59 59 $5.50
8-10 YORK 1/03/2021 1200MAIDEN HANDICAPICELANDER 55.5 55.5 $6
6-7 YORK 1/03/2021 1200RTG 52+NIAYCHI 57 57 $9
7-7 YORK 1/03/2021 1500MAIDEN HANDICAPMENZEL 60 60 $26
8-12 ESP 28/02/2021 1600RTG 58+WORLD IS YOURS 56.5 56.5 $31
13-13 ESP 28/02/2021 2000ESPERANCE CUPBENTLEYS BROTHER 54 54 $19
3-12 ESP 28/02/2021 1200CL2TRASH PANDA 55 55 $21
8-10 ESP 28/02/2021 1400RTG 58+OSO TEMPTING 54 54 $21
7-12 ESP 28/02/2021 1400MDNCALLING CARD 58 58 $41
3-7 ESP 28/02/2021 1100SKYRACING.TV PBALLADEER 58.5 58.5 $4.20
6-9 ESP 28/02/2021 1100MDNOFFENSIVE 57 57 $19
3-14 ASC 27/02/2021 1000RTG 72+RIVER BEAU 56 56 $7
7-16 ASC 27/02/2021 1400GRAD HCP 60+YULONG EARTH 55.5 55.5 $14
9-10 ASC 27/02/2021 1800LISTED - 1000 GUINEASLUNAR IMPACT 54 54 $71
4-7 ASC 27/02/2021 1800RTG 72+MAROCCHINO 55.5 55.5 $6.50
3-8 ASC 27/02/2021 1600MDNMOLLY MAGEE 56 56 $8
8-10 MTBK 26/02/2021 1850RTG 62+BERGIO 55 55 $15
4-9 MTBK 26/02/2021 1850CL2ART ADMIRER 59 59 $8
2-12 MTBK 26/02/2021 1100RTG 58+SAX ON QUE 54 54 $31
1-8 MTBK 26/02/2021 1200CL2STARAUTHORESS 58.5 58.5 $4.20
6-8 MTBK 26/02/2021 1300MDNFREEDOMOFTHEPRESS 57 57 $4.20
7-10 MTBK 26/02/2021 1000MDNREDITTO 58 58 $4.40
7-10 BUNB 25/02/2021 1420MDNJUST STRIKING 57 57 $26
5-6 BUNB 25/02/2021 1420CL3MIMS WIN 56 56 $7.50
6-11 BUNB 25/02/2021 12163YO MDNAGENT KENSINGTON 55 55 $5
2-12 BUNB 25/02/2021 12162YO MDNLUKES PIERRO 57 57 $101
7-10 ASC 24/02/2021 12000MWLYNOBLE SAVAGE 55 55 $41

Return to CRIS Search